sensor_id;sensor_type;location;lat;lon;timestamp;temperature;humidity
23259;DHT22;11798;51.528;7.240;2023-04-16T00:02:07;8.20;99.90
23259;DHT22;11798;51.528;7.240;2023-04-16T00:04:32;8.20;99.90
23259;DHT22;11798;51.528;7.240;2023-04-16T00:06:58;8.20;99.90
23259;DHT22;11798;51.528;7.240;2023-04-16T00:09:23;8.20;99.90
23259;DHT22;11798;51.528;7.240;2023-04-16T00:11:49;8.20;99.90
23259;DHT22;11798;51.528;7.240;2023-04-16T00:14:15;8.10;99.90
23259;DHT22;11798;51.528;7.240;2023-04-16T00:16:40;8.10;99.90
23259;DHT22;11798;51.528;7.240;2023-04-16T00:19:06;8.10;99.90
23259;DHT22;11798;51.528;7.240;2023-04-16T00:21:32;8.10;99.90
23259;DHT22;11798;51.528;7.240;2023-04-16T00:23:58;8.10;99.90
23259;DHT22;11798;51.528;7.240;2023-04-16T00:26:23;8.10;99.90
23259;DHT22;11798;51.528;7.240;2023-04-16T00:28:49;8.10;99.90
23259;DHT22;11798;51.528;7.240;2023-04-16T00:31:15;8.10;99.90
23259;DHT22;11798;51.528;7.240;2023-04-16T00:33:40;8.10;99.90
23259;DHT22;11798;51.528;7.240;2023-04-16T00:36:06;8.10;99.90
23259;DHT22;11798;51.528;7.240;2023-04-16T00:38:32;8.10;99.90
23259;DHT22;11798;51.528;7.240;2023-04-16T00:40:57;8.10;99.90
23259;DHT22;11798;51.528;7.240;2023-04-16T00:43:24;8.10;99.90
23259;DHT22;11798;51.528;7.240;2023-04-16T00:45:51;8.20;99.90
23259;DHT22;11798;51.528;7.240;2023-04-16T00:48:17;8.20;99.90
23259;DHT22;11798;51.528;7.240;2023-04-16T00:50:43;8.20;99.90
23259;DHT22;11798;51.528;7.240;2023-04-16T00:53:09;8.20;99.90
23259;DHT22;11798;51.528;7.240;2023-04-16T00:55:35;8.20;99.90
23259;DHT22;11798;51.528;7.240;2023-04-16T00:58:01;8.10;99.90
23259;DHT22;11798;51.528;7.240;2023-04-16T01:00:27;8.00;99.90
23259;DHT22;11798;51.528;7.240;2023-04-16T01:02:53;8.00;99.90
23259;DHT22;11798;51.528;7.240;2023-04-16T01:05:20;8.00;99.90
23259;DHT22;11798;51.528;7.240;2023-04-16T01:07:45;8.10;99.90
23259;DHT22;11798;51.528;7.240;2023-04-16T01:10:11;8.10;99.90
23259;DHT22;11798;51.528;7.240;2023-04-16T01:12:37;8.10;99.90
23259;DHT22;11798;51.528;7.240;2023-04-16T01:15:02;8.10;99.90
23259;DHT22;11798;51.528;7.240;2023-04-16T01:17:28;8.10;99.90
23259;DHT22;11798;51.528;7.240;2023-04-16T01:19:58;8.10;99.90
23259;DHT22;11798;51.528;7.240;2023-04-16T01:22:23;8.10;99.90
23259;DHT22;11798;51.528;7.240;2023-04-16T01:24:49;8.10;99.90
23259;DHT22;11798;51.528;7.240;2023-04-16T01:27:15;8.10;99.90
23259;DHT22;11798;51.528;7.240;2023-04-16T01:29:40;8.10;99.90
23259;DHT22;11798;51.528;7.240;2023-04-16T01:32:06;8.10;99.90
23259;DHT22;11798;51.528;7.240;2023-04-16T01:34:32;8.10;99.90
23259;DHT22;11798;51.528;7.240;2023-04-16T01:36:57;8.10;99.90
23259;DHT22;11798;51.528;7.240;2023-04-16T01:39:23;8.20;99.90
23259;DHT22;11798;51.528;7.240;2023-04-16T01:41:48;8.20;99.90
23259;DHT22;11798;51.528;7.240;2023-04-16T01:44:14;8.10;99.90
23259;DHT22;11798;51.528;7.240;2023-04-16T01:46:40;8.10;99.90
23259;DHT22;11798;51.528;7.240;2023-04-16T01:49:06;8.10;99.90
23259;DHT22;11798;51.528;7.240;2023-04-16T01:51:32;8.10;99.90
23259;DHT22;11798;51.528;7.240;2023-04-16T01:53:57;8.00;99.90
23259;DHT22;11798;51.528;7.240;2023-04-16T01:56:23;8.10;99.90
23259;DHT22;11798;51.528;7.240;2023-04-16T01:58:49;8.20;99.90
23259;DHT22;11798;51.528;7.240;2023-04-16T02:01:15;8.20;99.90
23259;DHT22;11798;51.528;7.240;2023-04-16T02:03:41;8.20;99.90
23259;DHT22;11798;51.528;7.240;2023-04-16T02:06:06;8.20;99.90
23259;DHT22;11798;51.528;7.240;2023-04-16T02:08:32;8.20;99.90
23259;DHT22;11798;51.528;7.240;2023-04-16T02:10:58;8.30;99.90
23259;DHT22;11798;51.528;7.240;2023-04-16T02:13:23;8.20;99.90
23259;DHT22;11798;51.528;7.240;2023-04-16T02:15:50;8.30;99.90
23259;DHT22;11798;51.528;7.240;2023-04-16T02:18:16;8.20;99.90
23259;DHT22;11798;51.528;7.240;2023-04-16T02:20:44;8.30;99.90
23259;DHT22;11798;51.528;7.240;2023-04-16T02:23:10;8.30;99.90
23259;DHT22;11798;51.528;7.240;2023-04-16T02:25:43;8.30;99.90
23259;DHT22;11798;51.528;7.240;2023-04-16T02:28:11;8.30;99.90
23259;DHT22;11798;51.528;7.240;2023-04-16T02:30:38;8.30;99.90
23259;DHT22;11798;51.528;7.240;2023-04-16T02:33:05;8.30;99.90
23259;DHT22;11798;51.528;7.240;2023-04-16T02:35:32;8.30;99.90
23259;DHT22;11798;51.528;7.240;2023-04-16T02:37:58;8.30;99.90
23259;DHT22;11798;51.528;7.240;2023-04-16T02:40:24;8.30;99.90
23259;DHT22;11798;51.528;7.240;2023-04-16T02:42:50;8.40;99.90
23259;DHT22;11798;51.528;7.240;2023-04-16T02:45:16;8.40;99.90
23259;DHT22;11798;51.528;7.240;2023-04-16T02:47:41;8.40;99.90
23259;DHT22;11798;51.528;7.240;2023-04-16T02:50:07;8.40;99.90
23259;DHT22;11798;51.528;7.240;2023-04-16T02:52:33;8.40;99.90
23259;DHT22;11798;51.528;7.240;2023-04-16T02:54:58;8.40;99.90
23259;DHT22;11798;51.528;7.240;2023-04-16T02:57:24;8.40;99.90
23259;DHT22;11798;51.528;7.240;2023-04-16T02:59:50;8.40;99.90
23259;DHT22;11798;51.528;7.240;2023-04-16T03:02:16;8.40;99.90
23259;DHT22;11798;51.528;7.240;2023-04-16T03:04:42;8.40;99.90
23259;DHT22;11798;51.528;7.240;2023-04-16T03:07:08;8.30;99.90
23259;DHT22;11798;51.528;7.240;2023-04-16T03:09:34;8.40;99.90
23259;DHT22;11798;51.528;7.240;2023-04-16T03:12:00;8.40;99.90
23259;DHT22;11798;51.528;7.240;2023-04-16T03:14:29;8.30;99.90
23259;DHT22;11798;51.528;7.240;2023-04-16T03:16:56;8.40;99.90
23259;DHT22;11798;51.528;7.240;2023-04-16T03:19:22;8.40;99.90
23259;DHT22;11798;51.528;7.240;2023-04-16T03:21:47;8.40;99.90
23259;DHT22;11798;51.528;7.240;2023-04-16T03:24:13;8.50;99.90
23259;DHT22;11798;51.528;7.240;2023-04-16T03:26:39;8.40;99.90
23259;DHT22;11798;51.528;7.240;2023-04-16T03:29:04;8.50;99.90
23259;DHT22;11798;51.528;7.240;2023-04-16T03:31:30;8.40;99.90
23259;DHT22;11798;51.528;7.240;2023-04-16T03:33:56;8.40;99.90
23259;DHT22;11798;51.528;7.240;2023-04-16T03:36:21;8.50;99.90
23259;DHT22;11798;51.528;7.240;2023-04-16T03:38:48;8.50;99.90
23259;DHT22;11798;51.528;7.240;2023-04-16T03:41:14;8.50;99.90
23259;DHT22;11798;51.528;7.240;2023-04-16T03:43:40;8.50;99.90
23259;DHT22;11798;51.528;7.240;2023-04-16T03:46:05;8.50;99.90
23259;DHT22;11798;51.528;7.240;2023-04-16T03:48:31;8.50;99.90
23259;DHT22;11798;51.528;7.240;2023-04-16T03:50:57;8.50;99.90
23259;DHT22;11798;51.528;7.240;2023-04-16T03:53:23;8.50;99.90
23259;DHT22;11798;51.528;7.240;2023-04-16T03:55:50;8.50;99.90
23259;DHT22;11798;51.528;7.240;2023-04-16T03:58:16;8.50;99.90
23259;DHT22;11798;51.528;7.240;2023-04-16T04:00:42;8.40;99.90
23259;DHT22;11798;51.528;7.240;2023-04-16T04:03:08;8.40;99.90
23259;DHT22;11798;51.528;7.240;2023-04-16T04:05:41;8.50;99.90
23259;DHT22;11798;51.528;7.240;2023-04-16T04:08:07;8.50;99.90
23259;DHT22;11798;51.528;7.240;2023-04-16T04:10:36;8.50;99.90
23259;DHT22;11798;51.528;7.240;2023-04-16T04:13:03;8.50;99.90
23259;DHT22;11798;51.528;7.240;2023-04-16T04:15:29;8.50;99.90
23259;DHT22;11798;51.528;7.240;2023-04-16T04:17:55;8.50;99.90
23259;DHT22;11798;51.528;7.240;2023-04-16T04:20:21;8.50;99.90
23259;DHT22;11798;51.528;7.240;2023-04-16T04:22:47;8.50;99.90
23259;DHT22;11798;51.528;7.240;2023-04-16T04:25:12;8.50;99.90
23259;DHT22;11798;51.528;7.240;2023-04-16T04:27:38;8.50;99.90
23259;DHT22;11798;51.528;7.240;2023-04-16T04:30:04;8.50;99.90
23259;DHT22;11798;51.528;7.240;2023-04-16T04:32:30;8.50;99.90
23259;DHT22;11798;51.528;7.240;2023-04-16T04:34:58;8.50;99.90
23259;DHT22;11798;51.528;7.240;2023-04-16T04:37:24;8.50;99.90
23259;DHT22;11798;51.528;7.240;2023-04-16T04:39:50;8.60;99.90
23259;DHT22;11798;51.528;7.240;2023-04-16T04:42:19;8.60;99.90
23259;DHT22;11798;51.528;7.240;2023-04-16T04:44:45;8.60;99.90
23259;DHT22;11798;51.528;7.240;2023-04-16T04:47:12;8.60;99.90
23259;DHT22;11798;51.528;7.240;2023-04-16T04:49:38;8.60;99.90
23259;DHT22;11798;51.528;7.240;2023-04-16T04:52:04;8.70;99.90
23259;DHT22;11798;51.528;7.240;2023-04-16T04:54:31;8.70;99.90
23259;DHT22;11798;51.528;7.240;2023-04-16T04:56:57;8.70;99.90
23259;DHT22;11798;51.528;7.240;2023-04-16T04:59:23;8.70;99.90
23259;DHT22;11798;51.528;7.240;2023-04-16T05:01:49;8.70;99.90
23259;DHT22;11798;51.528;7.240;2023-04-16T05:04:15;8.70;99.90
23259;DHT22;11798;51.528;7.240;2023-04-16T05:06:41;8.80;99.90
23259;DHT22;11798;51.528;7.240;2023-04-16T05:09:07;8.80;99.90
23259;DHT22;11798;51.528;7.240;2023-04-16T05:11:40;8.80;99.90
23259;DHT22;11798;51.528;7.240;2023-04-16T05:14:06;8.70;99.90
23259;DHT22;11798;51.528;7.240;2023-04-16T05:18:59;8.80;99.90
23259;DHT22;11798;51.528;7.240;2023-04-16T05:21:25;8.80;99.90
23259;DHT22;11798;51.528;7.240;2023-04-16T05:23:51;8.70;99.90
23259;DHT22;11798;51.528;7.240;2023-04-16T05:26:17;8.80;99.90
23259;DHT22;11798;51.528;7.240;2023-04-16T05:28:42;8.80;99.90
23259;DHT22;11798;51.528;7.240;2023-04-16T05:31:08;8.80;99.90
23259;DHT22;11798;51.528;7.240;2023-04-16T05:33:34;8.80;99.90
23259;DHT22;11798;51.528;7.240;2023-04-16T05:35:59;8.80;99.90
23259;DHT22;11798;51.528;7.240;2023-04-16T05:38:25;8.80;99.90
23259;DHT22;11798;51.528;7.240;2023-04-16T05:40:50;8.90;99.90
23259;DHT22;11798;51.528;7.240;2023-04-16T05:43:16;8.80;99.90
23259;DHT22;11798;51.528;7.240;2023-04-16T05:45:42;8.80;99.90
23259;DHT22;11798;51.528;7.240;2023-04-16T05:48:08;8.80;99.90
23259;DHT22;11798;51.528;7.240;2023-04-16T05:50:34;8.80;99.90
23259;DHT22;11798;51.528;7.240;2023-04-16T05:53:00;8.80;99.90
23259;DHT22;11798;51.528;7.240;2023-04-16T05:55:26;8.80;99.90
23259;DHT22;11798;51.528;7.240;2023-04-16T05:57:52;8.80;99.90
23259;DHT22;11798;51.528;7.240;2023-04-16T06:00:18;8.80;99.90
23259;DHT22;11798;51.528;7.240;2023-04-16T06:02:43;8.90;99.90
23259;DHT22;11798;51.528;7.240;2023-04-16T06:05:09;8.80;99.90
23259;DHT22;11798;51.528;7.240;2023-04-16T06:07:35;8.90;99.90
23259;DHT22;11798;51.528;7.240;2023-04-16T06:10:00;8.90;99.90
23259;DHT22;11798;51.528;7.240;2023-04-16T06:12:26;8.80;99.90
23259;DHT22;11798;51.528;7.240;2023-04-16T06:14:51;8.90;99.90
23259;DHT22;11798;51.528;7.240;2023-04-16T06:17:17;8.90;99.90
23259;DHT22;11798;51.528;7.240;2023-04-16T06:19:43;9.00;99.90
23259;DHT22;11798;51.528;7.240;2023-04-16T06:22:09;9.00;99.90
23259;DHT22;11798;51.528;7.240;2023-04-16T06:24:35;8.90;99.90
23259;DHT22;11798;51.528;7.240;2023-04-16T06:27:01;8.90;99.90
23259;DHT22;11798;51.528;7.240;2023-04-16T06:29:27;8.90;99.90
23259;DHT22;11798;51.528;7.240;2023-04-16T06:31:53;9.00;99.90
23259;DHT22;11798;51.528;7.240;2023-04-16T06:34:19;9.00;99.90
23259;DHT22;11798;51.528;7.240;2023-04-16T06:36:45;9.10;99.90
23259;DHT22;11798;51.528;7.240;2023-04-16T06:39:10;9.20;99.90
23259;DHT22;11798;51.528;7.240;2023-04-16T06:41:36;9.20;99.90
23259;DHT22;11798;51.528;7.240;2023-04-16T06:44:01;9.10;99.90
23259;DHT22;11798;51.528;7.240;2023-04-16T06:46:27;9.10;99.90
23259;DHT22;11798;51.528;7.240;2023-04-16T06:48:53;9.20;99.90
23259;DHT22;11798;51.528;7.240;2023-04-16T06:51:18;9.20;99.90
23259;DHT22;11798;51.528;7.240;2023-04-16T06:53:44;9.20;99.90
23259;DHT22;11798;51.528;7.240;2023-04-16T06:56:10;9.30;99.90
23259;DHT22;11798;51.528;7.240;2023-04-16T06:58:36;9.30;99.90
23259;DHT22;11798;51.528;7.240;2023-04-16T07:01:01;9.20;99.90
23259;DHT22;11798;51.528;7.240;2023-04-16T07:03:27;9.30;99.90
23259;DHT22;11798;51.528;7.240;2023-04-16T07:05:53;9.30;99.90
23259;DHT22;11798;51.528;7.240;2023-04-16T07:08:18;9.30;99.90
23259;DHT22;11798;51.528;7.240;2023-04-16T07:10:44;9.30;99.90
23259;DHT22;11798;51.528;7.240;2023-04-16T07:13:10;9.20;99.90
23259;DHT22;11798;51.528;7.240;2023-04-16T07:15:35;9.30;99.90
23259;DHT22;11798;51.528;7.240;2023-04-16T07:18:01;9.30;99.90
23259;DHT22;11798;51.528;7.240;2023-04-16T07:20:27;9.40;99.90
23259;DHT22;11798;51.528;7.240;2023-04-16T07:22:52;9.40;99.90
23259;DHT22;11798;51.528;7.240;2023-04-16T07:25:18;9.40;99.90
23259;DHT22;11798;51.528;7.240;2023-04-16T07:27:44;9.30;99.90
23259;DHT22;11798;51.528;7.240;2023-04-16T07:30:10;9.30;99.90
23259;DHT22;11798;51.528;7.240;2023-04-16T07:32:36;9.40;99.90
23259;DHT22;11798;51.528;7.240;2023-04-16T07:35:01;9.40;99.90
23259;DHT22;11798;51.528;7.240;2023-04-16T07:37:28;9.40;99.90
23259;DHT22;11798;51.528;7.240;2023-04-16T07:39:54;9.40;99.90
23259;DHT22;11798;51.528;7.240;2023-04-16T07:42:22;9.40;99.90
23259;DHT22;11798;51.528;7.240;2023-04-16T07:44:47;9.40;99.90
23259;DHT22;11798;51.528;7.240;2023-04-16T07:47:13;9.50;99.90
23259;DHT22;11798;51.528;7.240;2023-04-16T07:49:38;9.60;99.90
23259;DHT22;11798;51.528;7.240;2023-04-16T07:52:05;9.60;99.90
23259;DHT22;11798;51.528;7.240;2023-04-16T07:54:30;9.50;99.90
23259;DHT22;11798;51.528;7.240;2023-04-16T07:56:56;9.50;99.90
23259;DHT22;11798;51.528;7.240;2023-04-16T07:59:22;9.50;99.90
23259;DHT22;11798;51.528;7.240;2023-04-16T08:01:48;9.60;99.90
23259;DHT22;11798;51.528;7.240;2023-04-16T08:04:13;9.70;99.90
23259;DHT22;11798;51.528;7.240;2023-04-16T08:06:41;9.70;99.90
23259;DHT22;11798;51.528;7.240;2023-04-16T08:09:07;9.80;99.90
23259;DHT22;11798;51.528;7.240;2023-04-16T08:11:32;9.80;99.90
23259;DHT22;11798;51.528;7.240;2023-04-16T08:13:58;9.80;99.90
23259;DHT22;11798;51.528;7.240;2023-04-16T08:16:23;9.90;99.90
23259;DHT22;11798;51.528;7.240;2023-04-16T08:18:49;10.00;99.90
23259;DHT22;11798;51.528;7.240;2023-04-16T08:21:15;9.90;99.90
23259;DHT22;11798;51.528;7.240;2023-04-16T08:23:40;9.90;99.90
23259;DHT22;11798;51.528;7.240;2023-04-16T08:26:06;10.00;99.90
23259;DHT22;11798;51.528;7.240;2023-04-16T08:28:32;10.00;99.90
23259;DHT22;11798;51.528;7.240;2023-04-16T08:30:57;10.00;99.90
23259;DHT22;11798;51.528;7.240;2023-04-16T08:33:23;9.90;99.90
23259;DHT22;11798;51.528;7.240;2023-04-16T08:35:49;10.00;99.90
23259;DHT22;11798;51.528;7.240;2023-04-16T08:38:14;10.00;99.90
23259;DHT22;11798;51.528;7.240;2023-04-16T08:40:40;10.00;99.90
23259;DHT22;11798;51.528;7.240;2023-04-16T08:43:11;10.10;99.90
23259;DHT22;11798;51.528;7.240;2023-04-16T08:45:40;10.10;99.90
23259;DHT22;11798;51.528;7.240;2023-04-16T08:48:10;10.20;99.90
23259;DHT22;11798;51.528;7.240;2023-04-16T08:50:36;10.20;99.90
23259;DHT22;11798;51.528;7.240;2023-04-16T08:53:04;10.20;99.90
23259;DHT22;11798;51.528;7.240;2023-04-16T08:55:38;10.30;99.90
23259;DHT22;11798;51.528;7.240;2023-04-16T08:58:10;10.30;99.90
23259;DHT22;11798;51.528;7.240;2023-04-16T09:00:37;10.20;99.90
23259;DHT22;11798;51.528;7.240;2023-04-16T09:03:04;10.20;99.90
23259;DHT22;11798;51.528;7.240;2023-04-16T09:05:31;10.30;99.90
23259;DHT22;11798;51.528;7.240;2023-04-16T09:07:57;10.30;99.90
23259;DHT22;11798;51.528;7.240;2023-04-16T09:10:25;10.30;99.90
23259;DHT22;11798;51.528;7.240;2023-04-16T09:12:50;10.50;99.90
23259;DHT22;11798;51.528;7.240;2023-04-16T09:15:16;10.50;99.90
23259;DHT22;11798;51.528;7.240;2023-04-16T09:20:19;10.50;99.90
23259;DHT22;11798;51.528;7.240;2023-04-16T09:22:45;10.50;99.90
23259;DHT22;11798;51.528;7.240;2023-04-16T09:25:12;10.50;99.90
23259;DHT22;11798;51.528;7.240;2023-04-16T09:27:38;10.50;99.90
23259;DHT22;11798;51.528;7.240;2023-04-16T09:30:24;10.50;99.90
23259;DHT22;11798;51.528;7.240;2023-04-16T09:32:51;10.50;99.90
23259;DHT22;11798;51.528;7.240;2023-04-16T09:35:20;10.50;99.90
23259;DHT22;11798;51.528;7.240;2023-04-16T09:37:56;10.60;99.90
23259;DHT22;11798;51.528;7.240;2023-04-16T09:40:26;10.60;99.90
23259;DHT22;11798;51.528;7.240;2023-04-16T09:42:58;10.70;99.90
23259;DHT22;11798;51.528;7.240;2023-04-16T09:45:25;10.80;99.90
23259;DHT22;11798;51.528;7.240;2023-04-16T09:48:01;10.80;99.90
23259;DHT22;11798;51.528;7.240;2023-04-16T09:50:27;10.80;99.90
23259;DHT22;11798;51.528;7.240;2023-04-16T09:52:53;10.80;99.90
23259;DHT22;11798;51.528;7.240;2023-04-16T09:55:25;10.80;99.90
23259;DHT22;11798;51.528;7.240;2023-04-16T09:57:58;10.80;99.90
23259;DHT22;11798;51.528;7.240;2023-04-16T10:00:25;11.00;99.90
23259;DHT22;11798;51.528;7.240;2023-04-16T10:03:05;10.90;99.90
23259;DHT22;11798;51.528;7.240;2023-04-16T10:05:31;11.00;99.90
23259;DHT22;11798;51.528;7.240;2023-04-16T10:07:59;11.00;99.90
23259;DHT22;11798;51.528;7.240;2023-04-16T10:10:25;11.10;99.90
23259;DHT22;11798;51.528;7.240;2023-04-16T10:12:51;11.30;99.90
23259;DHT22;11798;51.528;7.240;2023-04-16T10:15:18;11.40;99.90
23259;DHT22;11798;51.528;7.240;2023-04-16T10:17:44;11.50;99.90
23259;DHT22;11798;51.528;7.240;2023-04-16T10:20:10;11.60;99.90
23259;DHT22;11798;51.528;7.240;2023-04-16T10:22:36;11.60;99.90
23259;DHT22;11798;51.528;7.240;2023-04-16T10:25:02;11.60;99.90
23259;DHT22;11798;51.528;7.240;2023-04-16T10:27:28;11.70;99.90
23259;DHT22;11798;51.528;7.240;2023-04-16T10:29:54;11.80;99.90
23259;DHT22;11798;51.528;7.240;2023-04-16T10:32:21;11.90;99.90
23259;DHT22;11798;51.528;7.240;2023-04-16T10:34:47;12.20;99.90
23259;DHT22;11798;51.528;7.240;2023-04-16T10:37:14;12.20;99.90
23259;DHT22;11798;51.528;7.240;2023-04-16T10:39:42;12.20;99.90
23259;DHT22;11798;51.528;7.240;2023-04-16T10:42:11;12.00;99.90
23259;DHT22;11798;51.528;7.240;2023-04-16T10:44:38;11.90;99.90
23259;DHT22;11798;51.528;7.240;2023-04-16T10:47:11;12.00;99.90
23259;DHT22;11798;51.528;7.240;2023-04-16T10:49:37;12.00;99.90
23259;DHT22;11798;51.528;7.240;2023-04-16T10:52:13;12.20;99.90
23259;DHT22;11798;51.528;7.240;2023-04-16T10:54:41;12.30;99.90
23259;DHT22;11798;51.528;7.240;2023-04-16T10:57:15;12.40;99.90
23259;DHT22;11798;51.528;7.240;2023-04-16T10:59:42;12.70;99.90
23259;DHT22;11798;51.528;7.240;2023-04-16T11:02:18;13.00;99.90
23259;DHT22;11798;51.528;7.240;2023-04-16T11:04:45;13.00;99.90
23259;DHT22;11798;51.528;7.240;2023-04-16T11:09:58;13.00;99.90
23259;DHT22;11798;51.528;7.240;2023-04-16T11:15:05;12.90;99.90
23259;DHT22;11798;51.528;7.240;2023-04-16T11:17:35;12.90;99.90
23259;DHT22;11798;51.528;7.240;2023-04-16T11:20:02;13.00;99.90
23259;DHT22;11798;51.528;7.240;2023-04-16T11:22:28;12.70;99.90
23259;DHT22;11798;51.528;7.240;2023-04-16T11:24:55;12.70;99.90
23259;DHT22;11798;51.528;7.240;2023-04-16T11:27:24;12.70;99.90
23259;DHT22;11798;51.528;7.240;2023-04-16T11:30:01;12.60;99.90
23259;DHT22;11798;51.528;7.240;2023-04-16T11:32:32;12.70;99.90
23259;DHT22;11798;51.528;7.240;2023-04-16T11:35:00;12.60;99.90
23259;DHT22;11798;51.528;7.240;2023-04-16T11:37:33;12.70;99.90
23259;DHT22;11798;51.528;7.240;2023-04-16T11:39:59;12.70;99.90
23259;DHT22;11798;51.528;7.240;2023-04-16T11:42:26;12.70;99.90
23259;DHT22;11798;51.528;7.240;2023-04-16T11:44:57;12.60;99.90
23259;DHT22;11798;51.528;7.240;2023-04-16T11:47:25;12.50;99.90
23259;DHT22;11798;51.528;7.240;2023-04-16T11:49:53;12.40;99.90
23259;DHT22;11798;51.528;7.240;2023-04-16T11:52:36;12.30;99.90
23259;DHT22;11798;51.528;7.240;2023-04-16T11:55:08;12.40;99.90
23259;DHT22;11798;51.528;7.240;2023-04-16T12:00:36;12.60;99.90
23259;DHT22;11798;51.528;7.240;2023-04-16T12:03:16;12.60;99.90
23259;DHT22;11798;51.528;7.240;2023-04-16T12:05:45;12.70;99.90
23259;DHT22;11798;51.528;7.240;2023-04-16T12:11:40;12.60;99.90
23259;DHT22;11798;51.528;7.240;2023-04-16T12:14:09;12.70;99.90
23259;DHT22;11798;51.528;7.240;2023-04-16T12:16:36;12.70;99.90
23259;DHT22;11798;51.528;7.240;2023-04-16T12:19:03;12.70;99.90
23259;DHT22;11798;51.528;7.240;2023-04-16T12:21:43;12.70;99.90
23259;DHT22;11798;51.528;7.240;2023-04-16T12:24:11;12.60;99.90
23259;DHT22;11798;51.528;7.240;2023-04-16T12:31:47;12.60;99.90
23259;DHT22;11798;51.528;7.240;2023-04-16T12:34:13;12.90;99.90
23259;DHT22;11798;51.528;7.240;2023-04-16T12:39:15;13.10;99.90
23259;DHT22;11798;51.528;7.240;2023-04-16T12:41:42;13.00;99.90
23259;DHT22;11798;51.528;7.240;2023-04-16T12:46:43;13.00;99.90
23259;DHT22;11798;51.528;7.240;2023-04-16T12:57:26;13.10;99.90
23259;DHT22;11798;51.528;7.240;2023-04-16T12:59:56;13.10;99.90
23259;DHT22;11798;51.528;7.240;2023-04-16T13:02:22;13.10;99.90
23259;DHT22;11798;51.528;7.240;2023-04-16T13:04:52;13.10;99.90
23259;DHT22;11798;51.528;7.240;2023-04-16T13:07:18;13.10;99.90
23259;DHT22;11798;51.528;7.240;2023-04-16T13:09:44;13.20;99.90
23259;DHT22;11798;51.528;7.240;2023-04-16T13:12:10;13.30;99.90
23259;DHT22;11798;51.528;7.240;2023-04-16T13:14:36;13.30;99.90
23259;DHT22;11798;51.528;7.240;2023-04-16T13:17:02;13.30;99.90
23259;DHT22;11798;51.528;7.240;2023-04-16T13:19:31;13.30;99.90
23259;DHT22;11798;51.528;7.240;2023-04-16T13:21:57;13.40;99.90
23259;DHT22;11798;51.528;7.240;2023-04-16T13:24:23;13.40;99.90
23259;DHT22;11798;51.528;7.240;2023-04-16T13:26:49;13.20;99.90
23259;DHT22;11798;51.528;7.240;2023-04-16T13:29:16;13.20;99.90
23259;DHT22;11798;51.528;7.240;2023-04-16T13:31:42;13.10;99.90
23259;DHT22;11798;51.528;7.240;2023-04-16T13:34:08;13.30;99.90
23259;DHT22;11798;51.528;7.240;2023-04-16T13:36:35;13.50;99.90
23259;DHT22;11798;51.528;7.240;2023-04-16T13:39:01;13.70;99.90
23259;DHT22;11798;51.528;7.240;2023-04-16T13:41:29;13.80;99.90
23259;DHT22;11798;51.528;7.240;2023-04-16T13:43:56;13.80;99.90
23259;DHT22;11798;51.528;7.240;2023-04-16T13:46:21;13.90;99.90
23259;DHT22;11798;51.528;7.240;2023-04-16T13:48:47;13.90;99.90
23259;DHT22;11798;51.528;7.240;2023-04-16T13:51:13;13.80;99.90
23259;DHT22;11798;51.528;7.240;2023-04-16T13:53:40;13.60;99.90
23259;DHT22;11798;51.528;7.240;2023-04-16T13:56:05;13.70;99.90
23259;DHT22;11798;51.528;7.240;2023-04-16T13:58:32;13.60;99.90
23259;DHT22;11798;51.528;7.240;2023-04-16T14:00:57;13.60;99.90
23259;DHT22;11798;51.528;7.240;2023-04-16T14:03:24;13.60;99.90
23259;DHT22;11798;51.528;7.240;2023-04-16T14:05:51;13.70;99.90
23259;DHT22;11798;51.528;7.240;2023-04-16T14:08:16;13.70;99.90
23259;DHT22;11798;51.528;7.240;2023-04-16T14:10:42;13.70;99.90
23259;DHT22;11798;51.528;7.240;2023-04-16T14:13:08;13.60;99.90
23259;DHT22;11798;51.528;7.240;2023-04-16T14:15:33;13.60;99.90
23259;DHT22;11798;51.528;7.240;2023-04-16T14:17:59;13.60;99.90
23259;DHT22;11798;51.528;7.240;2023-04-16T14:20:25;13.50;99.90
23259;DHT22;11798;51.528;7.240;2023-04-16T14:22:51;13.50;99.90
23259;DHT22;11798;51.528;7.240;2023-04-16T14:25:17;13.40;99.90
23259;DHT22;11798;51.528;7.240;2023-04-16T14:27:42;13.50;99.90
23259;DHT22;11798;51.528;7.240;2023-04-16T14:30:08;13.40;99.90
23259;DHT22;11798;51.528;7.240;2023-04-16T14:32:34;13.50;99.90
23259;DHT22;11798;51.528;7.240;2023-04-16T14:35:00;13.60;99.90
23259;DHT22;11798;51.528;7.240;2023-04-16T14:37:26;13.60;99.90
23259;DHT22;11798;51.528;7.240;2023-04-16T14:39:52;13.70;99.90
23259;DHT22;11798;51.528;7.240;2023-04-16T14:42:18;13.70;99.90
23259;DHT22;11798;51.528;7.240;2023-04-16T14:44:44;13.70;99.90
23259;DHT22;11798;51.528;7.240;2023-04-16T14:47:09;13.70;99.90
23259;DHT22;11798;51.528;7.240;2023-04-16T14:49:35;13.70;99.90
23259;DHT22;11798;51.528;7.240;2023-04-16T14:52:01;13.60;99.90
23259;DHT22;11798;51.528;7.240;2023-04-16T14:54:30;13.60;99.90
23259;DHT22;11798;51.528;7.240;2023-04-16T14:56:57;13.60;99.90
23259;DHT22;11798;51.528;7.240;2023-04-16T14:59:23;13.60;99.90
23259;DHT22;11798;51.528;7.240;2023-04-16T15:01:49;13.60;99.90
23259;DHT22;11798;51.528;7.240;2023-04-16T15:04:15;13.50;99.90
23259;DHT22;11798;51.528;7.240;2023-04-16T15:06:41;13.60;99.90
23259;DHT22;11798;51.528;7.240;2023-04-16T15:09:07;13.60;99.90
23259;DHT22;11798;51.528;7.240;2023-04-16T15:11:33;13.50;99.90
23259;DHT22;11798;51.528;7.240;2023-04-16T15:13:59;13.50;99.90
23259;DHT22;11798;51.528;7.240;2023-04-16T15:16:25;13.50;99.90
23259;DHT22;11798;51.528;7.240;2023-04-16T15:18:51;13.50;99.90
23259;DHT22;11798;51.528;7.240;2023-04-16T15:21:16;13.50;99.90
23259;DHT22;11798;51.528;7.240;2023-04-16T15:23:42;13.50;99.90
23259;DHT22;11798;51.528;7.240;2023-04-16T15:26:08;13.60;99.90
23259;DHT22;11798;51.528;7.240;2023-04-16T15:28:33;13.60;99.90
23259;DHT22;11798;51.528;7.240;2023-04-16T15:30:59;13.60;99.90
23259;DHT22;11798;51.528;7.240;2023-04-16T15:33:24;13.60;99.90
23259;DHT22;11798;51.528;7.240;2023-04-16T15:35:51;13.70;99.90
23259;DHT22;11798;51.528;7.240;2023-04-16T15:38:17;13.80;99.90
23259;DHT22;11798;51.528;7.240;2023-04-16T15:40:43;14.10;99.90
23259;DHT22;11798;51.528;7.240;2023-04-16T15:43:08;14.20;99.90
23259;DHT22;11798;51.528;7.240;2023-04-16T15:45:34;14.20;99.90
23259;DHT22;11798;51.528;7.240;2023-04-16T15:48:00;14.20;99.90
23259;DHT22;11798;51.528;7.240;2023-04-16T15:50:25;14.20;99.90
23259;DHT22;11798;51.528;7.240;2023-04-16T15:52:51;14.30;99.90
23259;DHT22;11798;51.528;7.240;2023-04-16T15:55:17;14.50;99.90
23259;DHT22;11798;51.528;7.240;2023-04-16T15:57:43;14.50;99.90
23259;DHT22;11798;51.528;7.240;2023-04-16T16:00:10;14.60;99.90
23259;DHT22;11798;51.528;7.240;2023-04-16T16:02:42;14.50;99.90
23259;DHT22;11798;51.528;7.240;2023-04-16T16:05:09;14.40;99.90
23259;DHT22;11798;51.528;7.240;2023-04-16T16:07:35;14.40;99.90
23259;DHT22;11798;51.528;7.240;2023-04-16T16:10:01;14.40;99.90
23259;DHT22;11798;51.528;7.240;2023-04-16T16:12:27;14.50;99.90